Orlando, West Virginia
Current Conditions -  °F | °C
As of 5:35 AM on Sunday 26 Oct 2014 (Local Time) from KW22 Reporting Station
Clear Clear  
Wind Chill: 52°   Ceiling: Unl
Heat Index: 52°   Visibility: 10mi
Dew Point: 34°   Wind: 0mph
Humidity: 50%   Direction: NA
Pressure: 29.88"   Gusts: NA
Location:  38.87°N, 80.59°W
Report Text: KW22 260935Z AUTO 00000KT 10SM CLR 11/01 A2988 RMK AO2
Loading
Personal Weather Stations






























Interactive Weather Map
Tropical Storm Tracking
New forecast layout! Learn more

10-Day Weather Forecast

Advertisements
Track Severe Weather on mobile